sensor_id;sensor_type;location;lat;lon;timestamp;pressure;altitude;pressure_sealevel;temperature;humidity
11542;BME280;5827;49.482;7.716;2022-09-17T00:00:22;98529.78;;;10.32;100.00
11542;BME280;5827;49.482;7.716;2022-09-17T00:02:26;98526.34;;;10.19;100.00
11542;BME280;5827;49.482;7.716;2022-09-17T00:04:29;98530.50;;;10.10;100.00
11542;BME280;5827;49.482;7.716;2022-09-17T00:06:33;98525.81;;;10.17;100.00
11542;BME280;5827;49.482;7.716;2022-09-17T00:08:37;98518.25;;;10.14;100.00
11542;BME280;5827;49.482;7.716;2022-09-17T00:10:42;98520.59;;;10.11;100.00
11542;BME280;5827;49.482;7.716;2022-09-17T00:12:44;98520.53;;;10.06;100.00
11542;BME280;5827;49.482;7.716;2022-09-17T00:14:45;98518.59;;;10.01;100.00
11542;BME280;5827;49.482;7.716;2022-09-17T00:16:47;98521.75;;;9.98;100.00
11542;BME280;5827;49.482;7.716;2022-09-17T00:18:50;98516.97;;;10.00;100.00
11542;BME280;5827;49.482;7.716;2022-09-17T00:20:53;98518.53;;;9.96;100.00
11542;BME280;5827;49.482;7.716;2022-09-17T00:22:54;98517.00;;;9.83;100.00
11542;BME280;5827;49.482;7.716;2022-09-17T00:24:56;98525.50;;;9.80;100.00
11542;BME280;5827;49.482;7.716;2022-09-17T00:26:57;98527.63;;;9.78;100.00
11542;BME280;5827;49.482;7.716;2022-09-17T00:28:59;98527.63;;;9.78;100.00
11542;BME280;5827;49.482;7.716;2022-09-17T00:31:05;98528.34;;;9.90;100.00
11542;BME280;5827;49.482;7.716;2022-09-17T00:33:09;98534.25;;;9.76;100.00
11542;BME280;5827;49.482;7.716;2022-09-17T00:35:13;98538.78;;;9.75;100.00
11542;BME280;5827;49.482;7.716;2022-09-17T00:37:14;98532.88;;;9.73;100.00
11542;BME280;5827;49.482;7.716;2022-09-17T00:39:16;98536.84;;;9.71;100.00
11542;BME280;5827;49.482;7.716;2022-09-17T00:41:18;98540.03;;;9.67;100.00
11542;BME280;5827;49.482;7.716;2022-09-17T00:43:45;98530.63;;;9.65;100.00
11542;BME280;5827;49.482;7.716;2022-09-17T00:45:47;98531.09;;;9.45;100.00
11542;BME280;5827;49.482;7.716;2022-09-17T00:47:52;98523.28;;;9.43;100.00
11542;BME280;5827;49.482;7.716;2022-09-17T00:50:00;98517.44;;;9.30;100.00
11542;BME280;5827;49.482;7.716;2022-09-17T00:52:07;98511.25;;;9.41;100.00
11542;BME280;5827;49.482;7.716;2022-09-17T00:54:10;98516.50;;;9.53;100.00
11542;BME280;5827;49.482;7.716;2022-09-17T00:56:17;98512.94;;;9.47;100.00
11542;BME280;5827;49.482;7.716;2022-09-17T00:58:23;98519.91;;;9.48;100.00
11542;BME280;5827;49.482;7.716;2022-09-17T01:00:26;98522.91;;;9.35;100.00
11542;BME280;5827;49.482;7.716;2022-09-17T01:02:28;98522.09;;;9.51;100.00
11542;BME280;5827;49.482;7.716;2022-09-17T01:04:30;98525.91;;;9.55;100.00
11542;BME280;5827;49.482;7.716;2022-09-17T01:06:33;98525.09;;;9.55;100.00
11542;BME280;5827;49.482;7.716;2022-09-17T01:08:51;98526.88;;;9.49;100.00
11542;BME280;5827;49.482;7.716;2022-09-17T01:11:09;98530.72;;;9.53;100.00
11542;BME280;5827;49.482;7.716;2022-09-17T01:13:20;98529.31;;;9.51;100.00
11542;BME280;5827;49.482;7.716;2022-09-17T01:15:46;98525.66;;;9.57;100.00
11542;BME280;5827;49.482;7.716;2022-09-17T01:17:56;98525.50;;;9.63;100.00
11542;BME280;5827;49.482;7.716;2022-09-17T01:20:22;98521.63;;;9.54;100.00
11542;BME280;5827;49.482;7.716;2022-09-17T01:22:32;98523.16;;;9.50;100.00
11542;BME280;5827;49.482;7.716;2022-09-17T01:24:56;98517.81;;;9.50;100.00
11542;BME280;5827;49.482;7.716;2022-09-17T01:29:45;98523.22;;;9.38;100.00
11542;BME280;5827;49.482;7.716;2022-09-17T01:31:53;98518.66;;;9.39;100.00
11542;BME280;5827;49.482;7.716;2022-09-17T01:34:02;98515.19;;;9.38;100.00
11542;BME280;5827;49.482;7.716;2022-09-17T01:36:21;98521.09;;;9.24;100.00
11542;BME280;5827;49.482;7.716;2022-09-17T01:38:26;98519.59;;;9.16;100.00
11542;BME280;5827;49.482;7.716;2022-09-17T01:40:35;98523.44;;;9.20;100.00
11542;BME280;5827;49.482;7.716;2022-09-17T01:42:46;98530.16;;;9.23;100.00
11542;BME280;5827;49.482;7.716;2022-09-17T01:44:54;98537.72;;;9.42;100.00
11542;BME280;5827;49.482;7.716;2022-09-17T01:47:05;98539.13;;;9.45;100.00
11542;BME280;5827;49.482;7.716;2022-09-17T01:49:10;98537.88;;;9.36;100.00
11542;BME280;5827;49.482;7.716;2022-09-17T01:51:16;98541.28;;;9.48;100.00
11542;BME280;5827;49.482;7.716;2022-09-17T01:53:23;98546.09;;;9.46;100.00
11542;BME280;5827;49.482;7.716;2022-09-17T01:55:29;98539.75;;;9.52;100.00
11542;BME280;5827;49.482;7.716;2022-09-17T01:57:35;98542.25;;;9.42;100.00
11542;BME280;5827;49.482;7.716;2022-09-17T01:59:43;98553.56;;;9.44;100.00
11542;BME280;5827;49.482;7.716;2022-09-17T02:01:48;98552.97;;;9.42;100.00
11542;BME280;5827;49.482;7.716;2022-09-17T02:03:56;98557.03;;;9.45;100.00
11542;BME280;5827;49.482;7.716;2022-09-17T02:06:04;98547.16;;;9.45;100.00
11542;BME280;5827;49.482;7.716;2022-09-17T02:08:10;98549.31;;;9.31;100.00
11542;BME280;5827;49.482;7.716;2022-09-17T02:10:17;98552.03;;;9.20;100.00
11542;BME280;5827;49.482;7.716;2022-09-17T02:12:26;98549.44;;;9.25;100.00
11542;BME280;5827;49.482;7.716;2022-09-17T02:14:32;98552.91;;;9.25;100.00
11542;BME280;5827;49.482;7.716;2022-09-17T02:16:40;98554.56;;;9.26;100.00
11542;BME280;5827;49.482;7.716;2022-09-17T02:18:48;98554.06;;;9.29;100.00
11542;BME280;5827;49.482;7.716;2022-09-17T02:20:57;98548.09;;;9.39;100.00
11542;BME280;5827;49.482;7.716;2022-09-17T02:23:07;98551.81;;;9.38;100.00
11542;BME280;5827;49.482;7.716;2022-09-17T02:25:14;98546.03;;;9.29;100.00
11542;BME280;5827;49.482;7.716;2022-09-17T02:27:21;98547.09;;;9.28;100.00
11542;BME280;5827;49.482;7.716;2022-09-17T02:29:29;98549.44;;;9.25;100.00
11542;BME280;5827;49.482;7.716;2022-09-17T02:31:32;98540.94;;;9.28;100.00
11542;BME280;5827;49.482;7.716;2022-09-17T02:33:34;98546.22;;;9.23;100.00
11542;BME280;5827;49.482;7.716;2022-09-17T02:35:38;98548.59;;;9.36;100.00
11542;BME280;5827;49.482;7.716;2022-09-17T02:37:41;98556.03;;;9.34;100.00
11542;BME280;5827;49.482;7.716;2022-09-17T02:39:42;98552.25;;;9.47;100.00
11542;BME280;5827;49.482;7.716;2022-09-17T02:41:50;98556.88;;;9.51;100.00
11542;BME280;5827;49.482;7.716;2022-09-17T02:43:56;98561.16;;;9.52;100.00
11542;BME280;5827;49.482;7.716;2022-09-17T02:46:13;98551.59;;;9.39;100.00
11542;BME280;5827;49.482;7.716;2022-09-17T02:48:38;98553.13;;;9.35;100.00
11542;BME280;5827;49.482;7.716;2022-09-17T02:50:58;98561.47;;;9.39;100.00
11542;BME280;5827;49.482;7.716;2022-09-17T02:53:18;98557.34;;;9.48;100.00
11542;BME280;5827;49.482;7.716;2022-09-17T02:55:28;98560.25;;;9.47;100.00
11542;BME280;5827;49.482;7.716;2022-09-17T02:57:37;98560.59;;;9.50;100.00
11542;BME280;5827;49.482;7.716;2022-09-17T02:59:46;98558.72;;;9.51;100.00
11542;BME280;5827;49.482;7.716;2022-09-17T03:01:57;98563.75;;;9.47;100.00
11542;BME280;5827;49.482;7.716;2022-09-17T03:04:01;98565.22;;;9.55;100.00
11542;BME280;5827;49.482;7.716;2022-09-17T03:06:05;98563.81;;;9.52;100.00
11542;BME280;5827;49.482;7.716;2022-09-17T03:08:08;98558.19;;;9.49;100.00
11542;BME280;5827;49.482;7.716;2022-09-17T03:10:13;98568.03;;;9.48;100.00
11542;BME280;5827;49.482;7.716;2022-09-17T03:12:15;98564.13;;;9.39;100.00
11542;BME280;5827;49.482;7.716;2022-09-17T03:14:17;98569.09;;;9.47;100.00
11542;BME280;5827;49.482;7.716;2022-09-17T03:16:19;98566.88;;;9.27;100.00
11542;BME280;5827;49.482;7.716;2022-09-17T03:18:21;98562.69;;;9.31;100.00
11542;BME280;5827;49.482;7.716;2022-09-17T03:20:23;98562.28;;;9.39;100.00
11542;BME280;5827;49.482;7.716;2022-09-17T03:22:24;98566.25;;;9.37;100.00
11542;BME280;5827;49.482;7.716;2022-09-17T03:24:26;98561.06;;;9.47;100.00
11542;BME280;5827;49.482;7.716;2022-09-17T03:26:29;98565.56;;;9.58;100.00
11542;BME280;5827;49.482;7.716;2022-09-17T03:28:30;98564.25;;;9.61;100.00
11542;BME280;5827;49.482;7.716;2022-09-17T03:30:32;98566.41;;;9.47;100.00
11542;BME280;5827;49.482;7.716;2022-09-17T03:32:33;98562.06;;;9.58;100.00
11542;BME280;5827;49.482;7.716;2022-09-17T03:34:35;98568.06;;;9.65;100.00
11542;BME280;5827;49.482;7.716;2022-09-17T03:36:36;98567.19;;;9.76;100.00
11542;BME280;5827;49.482;7.716;2022-09-17T03:38:38;98565.63;;;9.80;100.00
11542;BME280;5827;49.482;7.716;2022-09-17T03:40:39;98560.38;;;9.85;100.00
11542;BME280;5827;49.482;7.716;2022-09-17T03:42:42;98564.75;;;9.91;100.00
11542;BME280;5827;49.482;7.716;2022-09-17T03:44:44;98562.56;;;9.88;100.00
11542;BME280;5827;49.482;7.716;2022-09-17T03:46:45;98572.94;;;9.85;100.00
11542;BME280;5827;49.482;7.716;2022-09-17T03:48:47;98573.50;;;9.87;100.00
11542;BME280;5827;49.482;7.716;2022-09-17T03:50:48;98568.41;;;9.85;100.00
11542;BME280;5827;49.482;7.716;2022-09-17T03:52:50;98580.22;;;9.89;100.00
11542;BME280;5827;49.482;7.716;2022-09-17T03:54:52;98574.88;;;9.89;100.00
11542;BME280;5827;49.482;7.716;2022-09-17T03:56:53;98577.47;;;9.84;100.00
11542;BME280;5827;49.482;7.716;2022-09-17T03:58:57;98581.63;;;9.92;100.00
11542;BME280;5827;49.482;7.716;2022-09-17T04:00:59;98583.63;;;9.85;100.00
11542;BME280;5827;49.482;7.716;2022-09-17T04:03:02;98590.94;;;9.89;100.00
11542;BME280;5827;49.482;7.716;2022-09-17T04:05:05;98592.97;;;9.99;100.00
11542;BME280;5827;49.482;7.716;2022-09-17T04:07:10;98589.81;;;9.85;100.00
11542;BME280;5827;49.482;7.716;2022-09-17T04:09:12;98598.66;;;9.86;100.00
11542;BME280;5827;49.482;7.716;2022-09-17T04:11:14;98597.75;;;9.97;100.00
11542;BME280;5827;49.482;7.716;2022-09-17T04:13:15;98594.81;;;9.99;100.00
11542;BME280;5827;49.482;7.716;2022-09-17T04:15:18;98588.03;;;9.91;100.00
11542;BME280;5827;49.482;7.716;2022-09-17T04:17:20;98597.19;;;9.95;100.00
11542;BME280;5827;49.482;7.716;2022-09-17T04:19:21;98585.84;;;9.88;100.00
11542;BME280;5827;49.482;7.716;2022-09-17T04:21:23;98585.69;;;9.95;100.00
11542;BME280;5827;49.482;7.716;2022-09-17T04:23:24;98588.38;;;9.95;100.00
11542;BME280;5827;49.482;7.716;2022-09-17T04:25:26;98585.84;;;10.05;100.00
11542;BME280;5827;49.482;7.716;2022-09-17T04:27:27;98584.13;;;10.15;100.00
11542;BME280;5827;49.482;7.716;2022-09-17T04:29:29;98585.72;;;10.16;100.00
11542;BME280;5827;49.482;7.716;2022-09-17T04:31:32;98583.81;;;10.29;100.00
11542;BME280;5827;49.482;7.716;2022-09-17T04:33:33;98580.66;;;10.32;100.00
11542;BME280;5827;49.482;7.716;2022-09-17T04:35:36;98584.69;;;10.34;100.00
11542;BME280;5827;49.482;7.716;2022-09-17T04:37:39;98581.94;;;10.29;100.00
11542;BME280;5827;49.482;7.716;2022-09-17T04:39:40;98578.84;;;10.21;100.00
11542;BME280;5827;49.482;7.716;2022-09-17T04:41:42;98584.56;;;10.24;100.00
11542;BME280;5827;49.482;7.716;2022-09-17T04:43:43;98590.28;;;10.16;100.00
11542;BME280;5827;49.482;7.716;2022-09-17T04:45:45;98594.03;;;10.15;100.00
11542;BME280;5827;49.482;7.716;2022-09-17T04:47:48;98588.59;;;10.10;100.00
11542;BME280;5827;49.482;7.716;2022-09-17T04:49:51;98596.63;;;10.10;100.00
11542;BME280;5827;49.482;7.716;2022-09-17T04:51:52;98599.56;;;10.08;100.00
11542;BME280;5827;49.482;7.716;2022-09-17T04:53:54;98598.41;;;10.04;100.00
11542;BME280;5827;49.482;7.716;2022-09-17T04:55:55;98599.06;;;9.95;100.00
11542;BME280;5827;49.482;7.716;2022-09-17T04:57:57;98601.63;;;9.89;100.00
11542;BME280;5827;49.482;7.716;2022-09-17T04:59:57;98603.75;;;9.87;100.00
11542;BME280;5827;49.482;7.716;2022-09-17T05:01:59;98602.28;;;9.97;100.00
11542;BME280;5827;49.482;7.716;2022-09-17T05:04:02;98600.59;;;9.90;100.00
11542;BME280;5827;49.482;7.716;2022-09-17T05:06:04;98602.63;;;10.00;100.00
11542;BME280;5827;49.482;7.716;2022-09-17T05:08:05;98603.19;;;10.02;100.00
11542;BME280;5827;49.482;7.716;2022-09-17T05:10:08;98602.31;;;10.13;100.00
11542;BME280;5827;49.482;7.716;2022-09-17T05:12:10;98603.19;;;10.02;100.00
11542;BME280;5827;49.482;7.716;2022-09-17T05:14:12;98599.56;;;10.08;100.00
11542;BME280;5827;49.482;7.716;2022-09-17T05:16:13;98605.53;;;10.15;100.00
11542;BME280;5827;49.482;7.716;2022-09-17T05:18:15;98603.19;;;10.02;100.00
11542;BME280;5827;49.482;7.716;2022-09-17T05:20:18;98613.97;;;10.07;100.00
11542;BME280;5827;49.482;7.716;2022-09-17T05:22:20;98614.47;;;10.04;100.00
11542;BME280;5827;49.482;7.716;2022-09-17T05:24:21;98616.41;;;10.09;100.00
11542;BME280;5827;49.482;7.716;2022-09-17T05:26:23;98621.13;;;10.02;100.00
11542;BME280;5827;49.482;7.716;2022-09-17T05:28:24;98616.81;;;10.01;100.00
11542;BME280;5827;49.482;7.716;2022-09-17T05:30:26;98617.06;;;10.16;100.00
11542;BME280;5827;49.482;7.716;2022-09-17T05:32:27;98610.88;;;10.15;100.00
11542;BME280;5827;49.482;7.716;2022-09-17T05:34:29;98616.09;;;10.22;100.00
11542;BME280;5827;49.482;7.716;2022-09-17T05:36:32;98624.47;;;10.26;100.00
11542;BME280;5827;49.482;7.716;2022-09-17T05:38:33;98623.88;;;10.24;100.00
11542;BME280;5827;49.482;7.716;2022-09-17T05:40:35;98629.16;;;10.35;100.00
11542;BME280;5827;49.482;7.716;2022-09-17T05:42:37;98622.91;;;10.30;100.00
11542;BME280;5827;49.482;7.716;2022-09-17T05:44:38;98631.03;;;10.35;100.00
11542;BME280;5827;49.482;7.716;2022-09-17T05:46:40;98626.19;;;10.32;100.00
11542;BME280;5827;49.482;7.716;2022-09-17T05:48:41;98624.13;;;10.39;100.00
11542;BME280;5827;49.482;7.716;2022-09-17T05:50:43;98623.00;;;10.35;100.00
11542;BME280;5827;49.482;7.716;2022-09-17T05:52:46;98629.47;;;10.39;100.00
11542;BME280;5827;49.482;7.716;2022-09-17T05:54:48;98627.72;;;10.45;100.00
11542;BME280;5827;49.482;7.716;2022-09-17T05:56:51;98637.03;;;10.59;100.00
11542;BME280;5827;49.482;7.716;2022-09-17T05:58:54;98647.56;;;10.49;100.00
11542;BME280;5827;49.482;7.716;2022-09-17T06:00:59;98647.50;;;10.43;100.00
11542;BME280;5827;49.482;7.716;2022-09-17T06:03:00;98645.00;;;10.37;100.00
11542;BME280;5827;49.482;7.716;2022-09-17T06:05:02;98646.34;;;10.39;100.00
11542;BME280;5827;49.482;7.716;2022-09-17T06:07:04;98656.03;;;10.40;100.00
11542;BME280;5827;49.482;7.716;2022-09-17T06:09:08;98646.47;;;10.45;100.00
11542;BME280;5827;49.482;7.716;2022-09-17T06:11:10;98650.97;;;10.44;100.00
11542;BME280;5827;49.482;7.716;2022-09-17T06:13:11;98650.34;;;10.37;100.00
11542;BME280;5827;49.482;7.716;2022-09-17T06:15:13;98647.81;;;10.47;100.00
11542;BME280;5827;49.482;7.716;2022-09-17T06:17:14;98651.81;;;10.45;100.00
11542;BME280;5827;49.482;7.716;2022-09-17T06:19:16;98654.72;;;10.43;100.00
11542;BME280;5827;49.482;7.716;2022-09-17T06:21:18;98653.19;;;10.47;100.00
11542;BME280;5827;49.482;7.716;2022-09-17T06:23:20;98657.06;;;10.56;100.00
11542;BME280;5827;49.482;7.716;2022-09-17T06:25:24;98649.84;;;10.57;100.00
11542;BME280;5827;49.482;7.716;2022-09-17T06:27:29;98653.72;;;10.66;100.00
11542;BME280;5827;49.482;7.716;2022-09-17T06:29:31;98654.28;;;10.68;100.00
11542;BME280;5827;49.482;7.716;2022-09-17T06:31:32;98650.22;;;10.65;100.00
11542;BME280;5827;49.482;7.716;2022-09-17T06:33:34;98660.94;;;10.65;100.00
11542;BME280;5827;49.482;7.716;2022-09-17T06:35:35;98660.94;;;10.65;100.00
11542;BME280;5827;49.482;7.716;2022-09-17T06:37:37;98663.63;;;10.65;100.00
11542;BME280;5827;49.482;7.716;2022-09-17T06:39:40;98657.03;;;10.73;100.00
11542;BME280;5827;49.482;7.716;2022-09-17T06:41:42;98662.88;;;10.70;100.00
11542;BME280;5827;49.482;7.716;2022-09-17T06:43:45;98666.16;;;10.72;100.00
11542;BME280;5827;49.482;7.716;2022-09-17T06:45:50;98673.22;;;11.00;100.00
11542;BME280;5827;49.482;7.716;2022-09-17T06:47:52;98673.59;;;11.09;100.00
11542;BME280;5827;49.482;7.716;2022-09-17T06:49:54;98668.59;;;11.17;100.00
11542;BME280;5827;49.482;7.716;2022-09-17T06:51:56;98668.91;;;11.43;100.00
11542;BME280;5827;49.482;7.716;2022-09-17T06:53:58;98678.00;;;11.64;100.00
11542;BME280;5827;49.482;7.716;2022-09-17T06:56:00;98673.41;;;11.86;100.00
11542;BME280;5827;49.482;7.716;2022-09-17T06:58:02;98681.38;;;11.54;100.00
11542;BME280;5827;49.482;7.716;2022-09-17T07:00:05;98680.75;;;11.69;100.00
11542;BME280;5827;49.482;7.716;2022-09-17T07:02:07;98682.28;;;11.87;100.00
11542;BME280;5827;49.482;7.716;2022-09-17T07:04:09;98682.84;;;11.89;100.00
11542;BME280;5827;49.482;7.716;2022-09-17T07:06:11;98668.69;;;11.99;100.00
11542;BME280;5827;49.482;7.716;2022-09-17T07:08:12;98676.41;;;11.90;100.00
11542;BME280;5827;49.482;7.716;2022-09-17T07:10:14;98684.41;;;11.85;100.00
11542;BME280;5827;49.482;7.716;2022-09-17T07:12:16;98686.81;;;11.86;100.00
11542;BME280;5827;49.482;7.716;2022-09-17T07:14:18;98682.44;;;11.80;100.00
11542;BME280;5827;49.482;7.716;2022-09-17T07:16:20;98674.00;;;11.66;100.00
11542;BME280;5827;49.482;7.716;2022-09-17T07:18:23;98678.56;;;11.66;100.00
11542;BME280;5827;49.482;7.716;2022-09-17T07:20:24;98675.41;;;11.74;100.00
11542;BME280;5827;49.482;7.716;2022-09-17T07:22:26;98676.06;;;11.59;100.00
11542;BME280;5827;49.482;7.716;2022-09-17T07:24:27;98675.59;;;11.67;100.00
11542;BME280;5827;49.482;7.716;2022-09-17T07:26:29;98673.59;;;11.80;100.00
11542;BME280;5827;49.482;7.716;2022-09-17T07:28:30;98681.38;;;11.81;100.00
11542;BME280;5827;49.482;7.716;2022-09-17T07:30:33;98677.91;;;12.08;100.00
11542;BME280;5827;49.482;7.716;2022-09-17T07:32:35;98676.03;;;12.08;100.00
11542;BME280;5827;49.482;7.716;2022-09-17T07:34:36;98672.72;;;12.28;100.00
11542;BME280;5827;49.482;7.716;2022-09-17T07:36:38;98679.09;;;12.22;100.00
11542;BME280;5827;49.482;7.716;2022-09-17T07:38:39;98676.69;;;12.20;100.00
11542;BME280;5827;49.482;7.716;2022-09-17T07:40:41;98671.34;;;12.26;100.00
11542;BME280;5827;49.482;7.716;2022-09-17T07:42:42;98673.63;;;12.44;100.00
11542;BME280;5827;49.482;7.716;2022-09-17T07:44:44;98666.19;;;12.51;100.00
11542;BME280;5827;49.482;7.716;2022-09-17T07:46:47;98663.13;;;12.80;100.00
11542;BME280;5827;49.482;7.716;2022-09-17T07:48:49;98677.31;;;12.70;100.00
11542;BME280;5827;49.482;7.716;2022-09-17T07:50:51;98669.16;;;12.60;100.00
11542;BME280;5827;49.482;7.716;2022-09-17T07:52:52;98676.78;;;12.36;100.00
11542;BME280;5827;49.482;7.716;2022-09-17T07:54:54;98678.06;;;12.60;100.00
11542;BME280;5827;49.482;7.716;2022-09-17T07:56:55;98683.75;;;12.69;100.00
11542;BME280;5827;49.482;7.716;2022-09-17T07:58:57;98684.69;;;12.90;100.00
11542;BME280;5827;49.482;7.716;2022-09-17T08:00:59;98686.59;;;12.94;100.00
11542;BME280;5827;49.482;7.716;2022-09-17T08:03:03;98685.81;;;12.99;100.00
11542;BME280;5827;49.482;7.716;2022-09-17T08:05:04;98686.09;;;12.97;100.00
11542;BME280;5827;49.482;7.716;2022-09-17T08:07:06;98685.06;;;13.09;100.00
11542;BME280;5827;49.482;7.716;2022-09-17T08:09:07;98687.41;;;12.95;100.00
11542;BME280;5827;49.482;7.716;2022-09-17T08:11:11;98676.31;;;13.29;100.00
11542;BME280;5827;49.482;7.716;2022-09-17T08:13:13;98683.50;;;13.18;99.20
11542;BME280;5827;49.482;7.716;2022-09-17T08:15:14;98690.59;;;13.29;98.73
11542;BME280;5827;49.482;7.716;2022-09-17T08:17:16;98685.75;;;13.41;97.10
11542;BME280;5827;49.482;7.716;2022-09-17T08:19:19;98680.38;;;13.41;96.41
11542;BME280;5827;49.482;7.716;2022-09-17T08:21:21;98687.16;;;13.54;95.99
11542;BME280;5827;49.482;7.716;2022-09-17T08:23:24;98692.88;;;13.78;95.76
11542;BME280;5827;49.482;7.716;2022-09-17T08:25:25;98699.13;;;13.99;95.08
11542;BME280;5827;49.482;7.716;2022-09-17T08:27:28;98703.19;;;14.17;90.60
11542;BME280;5827;49.482;7.716;2022-09-17T08:29:30;98705.09;;;14.21;88.90
11542;BME280;5827;49.482;7.716;2022-09-17T08:31:31;98712.88;;;14.13;87.31
11542;BME280;5827;49.482;7.716;2022-09-17T08:33:34;98714.72;;;13.87;83.81
11542;BME280;5827;49.482;7.716;2022-09-17T08:35:37;98710.41;;;13.86;82.01
11542;BME280;5827;49.482;7.716;2022-09-17T08:37:40;98714.19;;;13.90;81.47
11542;BME280;5827;49.482;7.716;2022-09-17T08:39:41;98724.69;;;13.96;80.09
11542;BME280;5827;49.482;7.716;2022-09-17T08:41:51;98727.44;;;14.22;79.66
11542;BME280;5827;49.482;7.716;2022-09-17T08:44:04;98723.94;;;14.27;80.34
11542;BME280;5827;49.482;7.716;2022-09-17T08:46:09;98726.88;;;14.20;77.21
11542;BME280;5827;49.482;7.716;2022-09-17T08:48:12;98740.41;;;14.40;74.15
11542;BME280;5827;49.482;7.716;2022-09-17T08:50:17;98725.06;;;14.56;76.97
11542;BME280;5827;49.482;7.716;2022-09-17T08:52:50;98725.34;;;14.49;78.43
11542;BME280;5827;49.482;7.716;2022-09-17T08:54:59;98726.66;;;14.83;78.42
11542;BME280;5827;49.482;7.716;2022-09-17T08:57:19;98738.78;;;14.75;77.24
11542;BME280;5827;49.482;7.716;2022-09-17T08:59:28;98730.13;;;14.93;77.80
11542;BME280;5827;49.482;7.716;2022-09-17T09:01:39;98743.09;;;14.86;74.99
11542;BME280;5827;49.482;7.716;2022-09-17T09:03:57;98755.25;;;14.94;71.88
11542;BME280;5827;49.482;7.716;2022-09-17T09:06:02;98757.13;;;14.88;68.09
11542;BME280;5827;49.482;7.716;2022-09-17T09:08:11;98755.97;;;15.30;70.26
11542;BME280;5827;49.482;7.716;2022-09-17T09:10:18;98752.41;;;15.50;68.87
11542;BME280;5827;49.482;7.716;2022-09-17T09:12:23;98766.78;;;15.35;67.60
11542;BME280;5827;49.482;7.716;2022-09-17T09:14:28;98758.91;;;15.39;68.17
11542;BME280;5827;49.482;7.716;2022-09-17T09:16:33;98754.41;;;15.14;65.65
11542;BME280;5827;49.482;7.716;2022-09-17T09:18:39;98759.25;;;15.17;64.98
11542;BME280;5827;49.482;7.716;2022-09-17T09:20:47;98762.19;;;15.36;63.73
11542;BME280;5827;49.482;7.716;2022-09-17T09:22:51;98767.31;;;15.32;63.67
11542;BME280;5827;49.482;7.716;2022-09-17T09:25:01;98759.94;;;15.53;65.51
11542;BME280;5827;49.482;7.716;2022-09-17T09:27:14;98759.41;;;15.51;65.85
11542;BME280;5827;49.482;7.716;2022-09-17T09:29:23;98750.44;;;15.71;67.37
11542;BME280;5827;49.482;7.716;2022-09-17T09:31:46;98773.44;;;15.53;64.73
11542;BME280;5827;49.482;7.716;2022-09-17T09:33:51;98767.03;;;15.34;64.04
11542;BME280;5827;49.482;7.716;2022-09-17T09:35:52;98769.09;;;15.57;65.19
11542;BME280;5827;49.482;7.716;2022-09-17T09:37:56;98763.22;;;15.50;64.23
11542;BME280;5827;49.482;7.716;2022-09-17T09:40:05;98765.94;;;15.30;64.22
11542;BME280;5827;49.482;7.716;2022-09-17T09:42:12;98774.53;;;15.52;63.93
11542;BME280;5827;49.482;7.716;2022-09-17T09:44:15;98775.59;;;15.66;63.41
11542;BME280;5827;49.482;7.716;2022-09-17T09:46:39;98763.53;;;16.03;64.21
11542;BME280;5827;49.482;7.716;2022-09-17T09:48:52;98767.22;;;15.58;63.11
11542;BME280;5827;49.482;7.716;2022-09-17T09:51:09;98767.47;;;15.66;62.79
11542;BME280;5827;49.482;7.716;2022-09-17T09:53:21;98768.66;;;15.30;63.11
11542;BME280;5827;49.482;7.716;2022-09-17T09:55:41;98767.59;;;15.20;67.31
11542;BME280;5827;49.482;7.716;2022-09-17T09:57:48;98754.69;;;15.12;73.16
11542;BME280;5827;49.482;7.716;2022-09-17T10:00:18;98760.09;;;14.82;77.61
11542;BME280;5827;49.482;7.716;2022-09-17T10:02:22;98745.81;;;14.61;81.08
11542;BME280;5827;49.482;7.716;2022-09-17T10:04:25;98750.41;;;14.60;81.04
11542;BME280;5827;49.482;7.716;2022-09-17T10:06:28;98753.09;;;14.65;82.06
11542;BME280;5827;49.482;7.716;2022-09-17T10:08:33;98760.88;;;14.36;83.03
11542;BME280;5827;49.482;7.716;2022-09-17T10:10:39;98766.78;;;14.18;85.27
11542;BME280;5827;49.482;7.716;2022-09-17T10:13:04;98779.50;;;13.12;88.71
11542;BME280;5827;49.482;7.716;2022-09-17T10:15:23;98760.66;;;12.70;95.53
11542;BME280;5827;49.482;7.716;2022-09-17T10:17:25;98752.69;;;12.85;99.54
11542;BME280;5827;49.482;7.716;2022-09-17T10:19:28;98739.22;;;12.43;100.00
11542;BME280;5827;49.482;7.716;2022-09-17T10:21:31;98737.66;;;12.52;100.00
11542;BME280;5827;49.482;7.716;2022-09-17T10:23:35;98741.47;;;12.56;100.00
11542;BME280;5827;49.482;7.716;2022-09-17T10:25:42;98753.78;;;12.84;100.00
11542;BME280;5827;49.482;7.716;2022-09-17T10:27:44;98767.00;;;12.96;100.00
11542;BME280;5827;49.482;7.716;2022-09-17T10:29:49;98771.59;;;12.95;100.00
11542;BME280;5827;49.482;7.716;2022-09-17T10:31:55;98765.13;;;12.96;100.00
11542;BME280;5827;49.482;7.716;2022-09-17T10:33:58;98760.63;;;13.02;100.00
11542;BME280;5827;49.482;7.716;2022-09-17T10:36:03;98758.50;;;12.72;100.00
11542;BME280;5827;49.482;7.716;2022-09-17T10:38:26;98751.88;;;12.85;100.00
11542;BME280;5827;49.482;7.716;2022-09-17T10:40:29;98744.44;;;12.97;100.00
11542;BME280;5827;49.482;7.716;2022-09-17T10:42:33;98738.84;;;13.09;100.00
11542;BME280;5827;49.482;7.716;2022-09-17T10:44:35;98737.56;;;13.16;100.00
11542;BME280;5827;49.482;7.716;2022-09-17T10:46:37;98749.91;;;13.12;100.00
11542;BME280;5827;49.482;7.716;2022-09-17T10:48:42;98749.84;;;13.02;100.00
11542;BME280;5827;49.482;7.716;2022-09-17T10:50:47;98744.00;;;13.10;100.00
11542;BME280;5827;49.482;7.716;2022-09-17T10:52:50;98741.94;;;13.28;100.00
11542;BME280;5827;49.482;7.716;2022-09-17T10:55:10;98743.66;;;13.44;100.00
11542;BME280;5827;49.482;7.716;2022-09-17T10:57:23;98755.53;;;13.48;99.93
11542;BME280;5827;49.482;7.716;2022-09-17T10:59:57;98751.31;;;13.72;100.00
11542;BME280;5827;49.482;7.716;2022-09-17T11:02:12;98759.63;;;13.61;98.42
11542;BME280;5827;49.482;7.716;2022-09-17T11:04:30;98761.06;;;13.89;95.77
11542;BME280;5827;49.482;7.716;2022-09-17T11:09:17;98764.50;;;13.74;92.03
11542;BME280;5827;49.482;7.716;2022-09-17T11:11:31;98760.91;;;13.48;92.85
11542;BME280;5827;49.482;7.716;2022-09-17T11:13:40;98755.72;;;13.36;94.54